sensor_id;sensor_type;location;lat;lon;timestamp;P1;durP1;ratioP1;P2;durP2;ratioP2
20336;SDS011;10326;53.660;10.200;2022-07-29T00:01:48;3.17;;;1.75;;
20336;SDS011;10326;53.660;10.200;2022-07-29T00:04:17;1.92;;;1.30;;
20336;SDS011;10326;53.660;10.200;2022-07-29T00:06:44;2.83;;;1.58;;
20336;SDS011;10326;53.660;10.200;2022-07-29T00:09:12;2.20;;;1.30;;
20336;SDS011;10326;53.660;10.200;2022-07-29T00:11:39;2.92;;;1.60;;
20336;SDS011;10326;53.660;10.200;2022-07-29T00:14:06;2.45;;;1.52;;
20336;SDS011;10326;53.660;10.200;2022-07-29T00:16:34;2.00;;;1.50;;
20336;SDS011;10326;53.660;10.200;2022-07-29T00:19:03;2.17;;;1.80;;
20336;SDS011;10326;53.660;10.200;2022-07-29T00:21:30;1.65;;;1.40;;
20336;SDS011;10326;53.660;10.200;2022-07-29T00:23:57;2.15;;;1.45;;
20336;SDS011;10326;53.660;10.200;2022-07-29T00:26:24;2.53;;;1.30;;
20336;SDS011;10326;53.660;10.200;2022-07-29T00:28:56;3.75;;;1.50;;
20336;SDS011;10326;53.660;10.200;2022-07-29T00:31:24;2.40;;;1.42;;
20336;SDS011;10326;53.660;10.200;2022-07-29T00:33:52;2.20;;;1.60;;
20336;SDS011;10326;53.660;10.200;2022-07-29T00:36:20;3.25;;;1.55;;
20336;SDS011;10326;53.660;10.200;2022-07-29T00:38:47;1.88;;;1.60;;
20336;SDS011;10326;53.660;10.200;2022-07-29T00:41:14;2.72;;;1.50;;
20336;SDS011;10326;53.660;10.200;2022-07-29T00:43:43;2.05;;;1.42;;
20336;SDS011;10326;53.660;10.200;2022-07-29T00:46:10;1.55;;;1.33;;
20336;SDS011;10326;53.660;10.200;2022-07-29T00:48:38;4.45;;;1.50;;
20336;SDS011;10326;53.660;10.200;2022-07-29T00:51:05;1.35;;;1.25;;
20336;SDS011;10326;53.660;10.200;2022-07-29T00:53:36;1.63;;;1.52;;
20336;SDS011;10326;53.660;10.200;2022-07-29T00:56:04;2.00;;;1.58;;
20336;SDS011;10326;53.660;10.200;2022-07-29T00:58:31;2.72;;;1.35;;
20336;SDS011;10326;53.660;10.200;2022-07-29T01:00:59;2.45;;;1.60;;
20336;SDS011;10326;53.660;10.200;2022-07-29T01:03:26;2.50;;;1.50;;
20336;SDS011;10326;53.660;10.200;2022-07-29T01:05:53;1.90;;;1.35;;
20336;SDS011;10326;53.660;10.200;2022-07-29T01:08:21;2.05;;;1.50;;
20336;SDS011;10326;53.660;10.200;2022-07-29T01:10:51;2.53;;;1.55;;
20336;SDS011;10326;53.660;10.200;2022-07-29T01:13:19;2.55;;;1.73;;
20336;SDS011;10326;53.660;10.200;2022-07-29T01:15:49;2.42;;;1.65;;
20336;SDS011;10326;53.660;10.200;2022-07-29T01:18:24;3.15;;;1.60;;
20336;SDS011;10326;53.660;10.200;2022-07-29T01:21:11;2.17;;;1.50;;
20336;SDS011;10326;53.660;10.200;2022-07-29T01:27:14;1.48;;;1.33;;
20336;SDS011;10326;53.660;10.200;2022-07-29T01:30:04;1.58;;;1.23;;
20336;SDS011;10326;53.660;10.200;2022-07-29T01:32:33;3.08;;;1.70;;
20336;SDS011;10326;53.660;10.200;2022-07-29T01:35:04;2.40;;;1.80;;
20336;SDS011;10326;53.660;10.200;2022-07-29T01:37:39;3.08;;;1.85;;
20336;SDS011;10326;53.660;10.200;2022-07-29T01:40:13;3.00;;;1.70;;
20336;SDS011;10326;53.660;10.200;2022-07-29T01:42:48;3.17;;;1.98;;
20336;SDS011;10326;53.660;10.200;2022-07-29T01:45:21;2.88;;;1.80;;
20336;SDS011;10326;53.660;10.200;2022-07-29T01:47:54;2.70;;;1.70;;
20336;SDS011;10326;53.660;10.200;2022-07-29T01:50:28;2.60;;;1.80;;
20336;SDS011;10326;53.660;10.200;2022-07-29T01:53:08;1.85;;;1.73;;
20336;SDS011;10326;53.660;10.200;2022-07-29T01:55:38;1.98;;;1.60;;
20336;SDS011;10326;53.660;10.200;2022-07-29T01:58:09;3.03;;;1.60;;
20336;SDS011;10326;53.660;10.200;2022-07-29T02:00:40;2.45;;;1.50;;
20336;SDS011;10326;53.660;10.200;2022-07-29T02:03:09;3.17;;;1.70;;
20336;SDS011;10326;53.660;10.200;2022-07-29T02:05:38;2.20;;;1.55;;
20336;SDS011;10326;53.660;10.200;2022-07-29T02:08:09;3.05;;;2.13;;
20336;SDS011;10326;53.660;10.200;2022-07-29T02:10:38;3.10;;;2.15;;
20336;SDS011;10326;53.660;10.200;2022-07-29T02:13:08;3.22;;;1.70;;
20336;SDS011;10326;53.660;10.200;2022-07-29T02:15:37;2.70;;;1.88;;
20336;SDS011;10326;53.660;10.200;2022-07-29T02:18:09;2.75;;;1.85;;
20336;SDS011;10326;53.660;10.200;2022-07-29T02:20:42;3.28;;;2.00;;
20336;SDS011;10326;53.660;10.200;2022-07-29T02:23:14;2.67;;;2.22;;
20336;SDS011;10326;53.660;10.200;2022-07-29T02:25:45;2.35;;;1.90;;
20336;SDS011;10326;53.660;10.200;2022-07-29T02:28:16;3.35;;;2.22;;
20336;SDS011;10326;53.660;10.200;2022-07-29T02:30:46;2.22;;;1.92;;
20336;SDS011;10326;53.660;10.200;2022-07-29T02:33:16;2.00;;;1.80;;
20336;SDS011;10326;53.660;10.200;2022-07-29T02:35:46;2.17;;;1.98;;
20336;SDS011;10326;53.660;10.200;2022-07-29T02:38:15;3.40;;;2.13;;
20336;SDS011;10326;53.660;10.200;2022-07-29T02:41:01;2.28;;;1.83;;
20336;SDS011;10326;53.660;10.200;2022-07-29T02:43:36;2.92;;;2.33;;
20336;SDS011;10326;53.660;10.200;2022-07-29T02:46:07;4.28;;;2.17;;
20336;SDS011;10326;53.660;10.200;2022-07-29T02:48:43;3.03;;;2.17;;
20336;SDS011;10326;53.660;10.200;2022-07-29T02:51:17;2.58;;;1.75;;
20336;SDS011;10326;53.660;10.200;2022-07-29T02:53:52;2.50;;;2.10;;
20336;SDS011;10326;53.660;10.200;2022-07-29T02:56:23;3.42;;;2.20;;
20336;SDS011;10326;53.660;10.200;2022-07-29T02:58:54;3.30;;;1.90;;
20336;SDS011;10326;53.660;10.200;2022-07-29T03:01:27;3.08;;;2.00;;
20336;SDS011;10326;53.660;10.200;2022-07-29T03:04:00;2.45;;;1.92;;
20336;SDS011;10326;53.660;10.200;2022-07-29T03:06:31;3.35;;;2.50;;
20336;SDS011;10326;53.660;10.200;2022-07-29T03:09:00;3.15;;;2.22;;
20336;SDS011;10326;53.660;10.200;2022-07-29T03:11:28;3.75;;;2.35;;
20336;SDS011;10326;53.660;10.200;2022-07-29T03:13:56;2.60;;;2.40;;
20336;SDS011;10326;53.660;10.200;2022-07-29T03:16:23;3.40;;;2.20;;
20336;SDS011;10326;53.660;10.200;2022-07-29T03:18:53;3.25;;;1.90;;
20336;SDS011;10326;53.660;10.200;2022-07-29T03:21:20;2.65;;;1.95;;
20336;SDS011;10326;53.660;10.200;2022-07-29T03:23:47;2.92;;;1.98;;
20336;SDS011;10326;53.660;10.200;2022-07-29T03:26:15;3.28;;;1.92;;
20336;SDS011;10326;53.660;10.200;2022-07-29T03:28:42;3.42;;;2.20;;
20336;SDS011;10326;53.660;10.200;2022-07-29T03:31:09;3.05;;;2.28;;
20336;SDS011;10326;53.660;10.200;2022-07-29T03:33:38;2.78;;;2.15;;
20336;SDS011;10326;53.660;10.200;2022-07-29T03:36:05;5.32;;;2.45;;
20336;SDS011;10326;53.660;10.200;2022-07-29T03:38:33;2.20;;;1.98;;
20336;SDS011;10326;53.660;10.200;2022-07-29T03:41:03;3.22;;;2.20;;
20336;SDS011;10326;53.660;10.200;2022-07-29T03:43:36;3.65;;;2.47;;
20336;SDS011;10326;53.660;10.200;2022-07-29T03:46:06;2.50;;;2.15;;
20336;SDS011;10326;53.660;10.200;2022-07-29T03:48:38;2.65;;;2.25;;
20336;SDS011;10326;53.660;10.200;2022-07-29T03:51:09;3.45;;;2.30;;
20336;SDS011;10326;53.660;10.200;2022-07-29T03:53:36;2.40;;;2.20;;
20336;SDS011;10326;53.660;10.200;2022-07-29T03:56:03;3.10;;;2.63;;
20336;SDS011;10326;53.660;10.200;2022-07-29T03:58:33;2.83;;;2.30;;
20336;SDS011;10326;53.660;10.200;2022-07-29T04:01:01;2.97;;;2.20;;
20336;SDS011;10326;53.660;10.200;2022-07-29T04:03:29;3.35;;;2.10;;
20336;SDS011;10326;53.660;10.200;2022-07-29T04:06:02;2.58;;;2.15;;
20336;SDS011;10326;53.660;10.200;2022-07-29T04:08:31;3.15;;;2.13;;
20336;SDS011;10326;53.660;10.200;2022-07-29T04:10:59;3.08;;;2.30;;
20336;SDS011;10326;53.660;10.200;2022-07-29T04:13:27;2.78;;;2.40;;
20336;SDS011;10326;53.660;10.200;2022-07-29T04:15:54;3.20;;;2.50;;
20336;SDS011;10326;53.660;10.200;2022-07-29T04:18:21;5.22;;;2.58;;
20336;SDS011;10326;53.660;10.200;2022-07-29T04:20:49;6.07;;;2.17;;
20336;SDS011;10326;53.660;10.200;2022-07-29T04:23:18;5.05;;;2.53;;
20336;SDS011;10326;53.660;10.200;2022-07-29T04:25:45;2.72;;;2.30;;
20336;SDS011;10326;53.660;10.200;2022-07-29T04:28:12;3.30;;;2.63;;
20336;SDS011;10326;53.660;10.200;2022-07-29T04:30:39;3.22;;;2.20;;
20336;SDS011;10326;53.660;10.200;2022-07-29T04:33:07;3.55;;;2.50;;
20336;SDS011;10326;53.660;10.200;2022-07-29T04:35:35;4.28;;;2.30;;
20336;SDS011;10326;53.660;10.200;2022-07-29T04:38:03;4.00;;;2.25;;
20336;SDS011;10326;53.660;10.200;2022-07-29T04:40:34;3.10;;;2.20;;
20336;SDS011;10326;53.660;10.200;2022-07-29T04:43:01;3.42;;;2.17;;
20336;SDS011;10326;53.660;10.200;2022-07-29T04:45:28;3.22;;;2.28;;
20336;SDS011;10326;53.660;10.200;2022-07-29T04:47:56;3.78;;;2.35;;
20336;SDS011;10326;53.660;10.200;2022-07-29T04:50:23;4.93;;;2.65;;
20336;SDS011;10326;53.660;10.200;2022-07-29T04:52:50;3.00;;;2.17;;
20336;SDS011;10326;53.660;10.200;2022-07-29T04:55:17;2.45;;;2.20;;
20336;SDS011;10326;53.660;10.200;2022-07-29T04:57:46;5.88;;;2.40;;
20336;SDS011;10326;53.660;10.200;2022-07-29T05:00:13;4.18;;;2.83;;
20336;SDS011;10326;53.660;10.200;2022-07-29T05:02:41;4.00;;;2.38;;
20336;SDS011;10326;53.660;10.200;2022-07-29T05:05:08;3.67;;;2.63;;
20336;SDS011;10326;53.660;10.200;2022-07-29T05:07:36;4.35;;;2.25;;
20336;SDS011;10326;53.660;10.200;2022-07-29T05:10:03;3.33;;;2.40;;
20336;SDS011;10326;53.660;10.200;2022-07-29T05:12:31;3.63;;;2.33;;
20336;SDS011;10326;53.660;10.200;2022-07-29T05:15:00;4.47;;;2.35;;
20336;SDS011;10326;53.660;10.200;2022-07-29T05:17:28;2.97;;;2.50;;
20336;SDS011;10326;53.660;10.200;2022-07-29T05:19:55;4.07;;;2.28;;
20336;SDS011;10326;53.660;10.200;2022-07-29T05:22:23;3.65;;;2.20;;
20336;SDS011;10326;53.660;10.200;2022-07-29T05:24:50;3.05;;;2.20;;
20336;SDS011;10326;53.660;10.200;2022-07-29T05:27:17;4.07;;;2.75;;
20336;SDS011;10326;53.660;10.200;2022-07-29T05:29:44;4.40;;;2.20;;
20336;SDS011;10326;53.660;10.200;2022-07-29T05:32:13;2.85;;;2.17;;
20336;SDS011;10326;53.660;10.200;2022-07-29T05:34:40;4.85;;;2.65;;
20336;SDS011;10326;53.660;10.200;2022-07-29T05:37:07;3.92;;;2.33;;
20336;SDS011;10326;53.660;10.200;2022-07-29T05:39:35;3.10;;;2.25;;
20336;SDS011;10326;53.660;10.200;2022-07-29T05:42:02;4.50;;;2.28;;
20336;SDS011;10326;53.660;10.200;2022-07-29T05:44:29;4.75;;;2.53;;
20336;SDS011;10326;53.660;10.200;2022-07-29T05:46:56;4.22;;;2.47;;
20336;SDS011;10326;53.660;10.200;2022-07-29T05:49:25;2.53;;;2.17;;
20336;SDS011;10326;53.660;10.200;2022-07-29T05:51:52;3.92;;;2.78;;
20336;SDS011;10326;53.660;10.200;2022-07-29T05:54:19;4.03;;;2.30;;
20336;SDS011;10326;53.660;10.200;2022-07-29T05:56:46;4.20;;;2.28;;
20336;SDS011;10326;53.660;10.200;2022-07-29T05:59:13;3.47;;;2.10;;
20336;SDS011;10326;53.660;10.200;2022-07-29T06:01:40;4.18;;;2.38;;
20336;SDS011;10326;53.660;10.200;2022-07-29T06:04:08;4.40;;;2.10;;
20336;SDS011;10326;53.660;10.200;2022-07-29T06:06:36;3.50;;;2.15;;
20336;SDS011;10326;53.660;10.200;2022-07-29T06:09:03;2.88;;;1.80;;
20336;SDS011;10326;53.660;10.200;2022-07-29T06:11:30;2.35;;;2.13;;
20336;SDS011;10326;53.660;10.200;2022-07-29T06:13:57;3.67;;;2.30;;
20336;SDS011;10326;53.660;10.200;2022-07-29T06:16:25;4.53;;;2.30;;
20336;SDS011;10326;53.660;10.200;2022-07-29T06:18:52;3.15;;;2.20;;
20336;SDS011;10326;53.660;10.200;2022-07-29T06:21:19;2.35;;;2.00;;
20336;SDS011;10326;53.660;10.200;2022-07-29T06:23:47;3.13;;;2.13;;
20336;SDS011;10326;53.660;10.200;2022-07-29T06:26:14;3.05;;;2.20;;
20336;SDS011;10326;53.660;10.200;2022-07-29T06:28:41;4.15;;;1.83;;
20336;SDS011;10326;53.660;10.200;2022-07-29T06:31:09;2.13;;;1.75;;
20336;SDS011;10326;53.660;10.200;2022-07-29T06:33:36;3.00;;;2.15;;
20336;SDS011;10326;53.660;10.200;2022-07-29T06:36:03;4.57;;;2.05;;
20336;SDS011;10326;53.660;10.200;2022-07-29T06:38:32;2.70;;;1.90;;
20336;SDS011;10326;53.660;10.200;2022-07-29T06:41:00;2.55;;;2.00;;
20336;SDS011;10326;53.660;10.200;2022-07-29T06:43:32;3.67;;;1.95;;
20336;SDS011;10326;53.660;10.200;2022-07-29T06:46:04;3.00;;;1.85;;
20336;SDS011;10326;53.660;10.200;2022-07-29T06:48:34;2.60;;;1.80;;
20336;SDS011;10326;53.660;10.200;2022-07-29T06:51:02;3.40;;;1.92;;
20336;SDS011;10326;53.660;10.200;2022-07-29T06:53:31;3.85;;;2.30;;
20336;SDS011;10326;53.660;10.200;2022-07-29T06:56:01;2.85;;;2.20;;
20336;SDS011;10326;53.660;10.200;2022-07-29T06:58:29;3.03;;;2.08;;
20336;SDS011;10326;53.660;10.200;2022-07-29T07:00:56;2.95;;;2.00;;
20336;SDS011;10326;53.660;10.200;2022-07-29T07:03:24;3.40;;;2.20;;
20336;SDS011;10326;53.660;10.200;2022-07-29T07:05:52;3.28;;;1.90;;
20336;SDS011;10326;53.660;10.200;2022-07-29T07:08:20;4.85;;;2.03;;
20336;SDS011;10326;53.660;10.200;2022-07-29T07:10:48;2.67;;;1.75;;
20336;SDS011;10326;53.660;10.200;2022-07-29T07:13:17;2.63;;;2.15;;
20336;SDS011;10326;53.660;10.200;2022-07-29T07:15:45;2.42;;;2.10;;
20336;SDS011;10326;53.660;10.200;2022-07-29T07:18:13;2.45;;;2.00;;
20336;SDS011;10326;53.660;10.200;2022-07-29T07:20:41;3.03;;;2.15;;
20336;SDS011;10326;53.660;10.200;2022-07-29T07:23:08;2.50;;;2.30;;
20336;SDS011;10326;53.660;10.200;2022-07-29T07:25:36;3.35;;;1.90;;
20336;SDS011;10326;53.660;10.200;2022-07-29T07:28:03;2.53;;;2.33;;
20336;SDS011;10326;53.660;10.200;2022-07-29T07:30:32;4.03;;;2.45;;
20336;SDS011;10326;53.660;10.200;2022-07-29T07:32:59;3.45;;;2.30;;
20336;SDS011;10326;53.660;10.200;2022-07-29T07:35:27;4.57;;;2.10;;
20336;SDS011;10326;53.660;10.200;2022-07-29T07:37:54;2.63;;;1.90;;
20336;SDS011;10326;53.660;10.200;2022-07-29T07:40:21;3.33;;;2.10;;
20336;SDS011;10326;53.660;10.200;2022-07-29T07:42:49;4.07;;;1.83;;
20336;SDS011;10326;53.660;10.200;2022-07-29T07:45:16;4.20;;;1.90;;
20336;SDS011;10326;53.660;10.200;2022-07-29T07:47:45;3.42;;;2.00;;
20336;SDS011;10326;53.660;10.200;2022-07-29T07:50:12;4.05;;;2.28;;
20336;SDS011;10326;53.660;10.200;2022-07-29T07:52:45;2.10;;;1.90;;
20336;SDS011;10326;53.660;10.200;2022-07-29T07:55:14;3.85;;;2.13;;
20336;SDS011;10326;53.660;10.200;2022-07-29T07:57:42;2.85;;;1.80;;
20336;SDS011;10326;53.660;10.200;2022-07-29T08:00:10;3.88;;;1.90;;
20336;SDS011;10326;53.660;10.200;2022-07-29T08:02:39;4.35;;;2.28;;
20336;SDS011;10326;53.660;10.200;2022-07-29T08:05:09;3.85;;;1.95;;
20336;SDS011;10326;53.660;10.200;2022-07-29T08:07:38;2.47;;;1.98;;
20336;SDS011;10326;53.660;10.200;2022-07-29T08:10:06;3.35;;;2.20;;
20336;SDS011;10326;53.660;10.200;2022-07-29T08:12:34;3.22;;;2.08;;
20336;SDS011;10326;53.660;10.200;2022-07-29T08:15:01;3.33;;;2.45;;
20336;SDS011;10326;53.660;10.200;2022-07-29T08:17:29;3.53;;;2.28;;
20336;SDS011;10326;53.660;10.200;2022-07-29T08:19:56;2.65;;;2.22;;
20336;SDS011;10326;53.660;10.200;2022-07-29T08:22:25;4.38;;;2.03;;
20336;SDS011;10326;53.660;10.200;2022-07-29T08:24:52;3.97;;;2.00;;
20336;SDS011;10326;53.660;10.200;2022-07-29T08:27:20;2.00;;;1.70;;
20336;SDS011;10326;53.660;10.200;2022-07-29T08:29:48;3.95;;;2.15;;
20336;SDS011;10326;53.660;10.200;2022-07-29T08:32:15;3.30;;;2.15;;
20336;SDS011;10326;53.660;10.200;2022-07-29T08:34:42;2.38;;;2.17;;
20336;SDS011;10326;53.660;10.200;2022-07-29T08:37:11;3.05;;;2.15;;
20336;SDS011;10326;53.660;10.200;2022-07-29T08:39:40;3.42;;;1.98;;
20336;SDS011;10326;53.660;10.200;2022-07-29T08:42:07;3.17;;;2.17;;
20336;SDS011;10326;53.660;10.200;2022-07-29T08:44:35;4.60;;;2.40;;
20336;SDS011;10326;53.660;10.200;2022-07-29T08:47:03;2.60;;;2.08;;
20336;SDS011;10326;53.660;10.200;2022-07-29T08:49:32;2.63;;;1.90;;
20336;SDS011;10326;53.660;10.200;2022-07-29T08:52:01;3.50;;;2.15;;
20336;SDS011;10326;53.660;10.200;2022-07-29T08:54:29;3.15;;;2.10;;
20336;SDS011;10326;53.660;10.200;2022-07-29T08:56:58;2.95;;;2.08;;
20336;SDS011;10326;53.660;10.200;2022-07-29T08:59:27;2.28;;;1.88;;
20336;SDS011;10326;53.660;10.200;2022-07-29T09:01:56;2.30;;;1.95;;
20336;SDS011;10326;53.660;10.200;2022-07-29T09:04:27;3.35;;;2.15;;
20336;SDS011;10326;53.660;10.200;2022-07-29T09:07:00;3.60;;;2.30;;
20336;SDS011;10326;53.660;10.200;2022-07-29T09:09:31;3.83;;;2.05;;
20336;SDS011;10326;53.660;10.200;2022-07-29T09:12:01;3.75;;;2.30;;
20336;SDS011;10326;53.660;10.200;2022-07-29T09:14:30;2.90;;;1.73;;
20336;SDS011;10326;53.660;10.200;2022-07-29T09:16:58;4.57;;;1.98;;
20336;SDS011;10326;53.660;10.200;2022-07-29T09:19:26;3.33;;;2.10;;
20336;SDS011;10326;53.660;10.200;2022-07-29T09:21:56;2.38;;;1.95;;
20336;SDS011;10326;53.660;10.200;2022-07-29T09:24:27;2.83;;;2.03;;
20336;SDS011;10326;53.660;10.200;2022-07-29T09:27:09;2.40;;;2.20;;
20336;SDS011;10326;53.660;10.200;2022-07-29T09:29:45;2.28;;;2.00;;
20336;SDS011;10326;53.660;10.200;2022-07-29T09:32:13;2.90;;;2.08;;
20336;SDS011;10326;53.660;10.200;2022-07-29T09:34:40;2.95;;;1.92;;
20336;SDS011;10326;53.660;10.200;2022-07-29T09:37:07;2.17;;;1.85;;
20336;SDS011;10326;53.660;10.200;2022-07-29T09:39:35;2.95;;;1.65;;
20336;SDS011;10326;53.660;10.200;2022-07-29T09:42:12;2.90;;;1.60;;
20336;SDS011;10326;53.660;10.200;2022-07-29T09:44:43;5.78;;;2.10;;
20336;SDS011;10326;53.660;10.200;2022-07-29T09:47:13;2.58;;;1.88;;
20336;SDS011;10326;53.660;10.200;2022-07-29T09:49:51;3.75;;;2.03;;
20336;SDS011;10326;53.660;10.200;2022-07-29T09:52:22;2.60;;;1.63;;
20336;SDS011;10326;53.660;10.200;2022-07-29T09:54:50;3.15;;;1.73;;
20336;SDS011;10326;53.660;10.200;2022-07-29T09:57:23;2.25;;;1.58;;
20336;SDS011;10326;53.660;10.200;2022-07-29T09:59:56;4.70;;;1.70;;
20336;SDS011;10326;53.660;10.200;2022-07-29T10:02:28;3.25;;;1.70;;
20336;SDS011;10326;53.660;10.200;2022-07-29T10:04:57;3.80;;;1.83;;
20336;SDS011;10326;53.660;10.200;2022-07-29T10:07:25;3.03;;;1.50;;
20336;SDS011;10326;53.660;10.200;2022-07-29T10:09:53;2.40;;;1.88;;
20336;SDS011;10326;53.660;10.200;2022-07-29T10:12:23;3.33;;;1.52;;
20336;SDS011;10326;53.660;10.200;2022-07-29T10:14:51;3.63;;;1.73;;
20336;SDS011;10326;53.660;10.200;2022-07-29T10:17:19;3.05;;;1.52;;
20336;SDS011;10326;53.660;10.200;2022-07-29T10:19:46;3.67;;;1.70;;
20336;SDS011;10326;53.660;10.200;2022-07-29T10:22:15;2.08;;;1.48;;
20336;SDS011;10326;53.660;10.200;2022-07-29T10:24:42;2.78;;;1.50;;
20336;SDS011;10326;53.660;10.200;2022-07-29T10:27:10;3.22;;;1.60;;
20336;SDS011;10326;53.660;10.200;2022-07-29T10:29:39;4.97;;;1.73;;
20336;SDS011;10326;53.660;10.200;2022-07-29T10:32:08;1.88;;;1.63;;
20336;SDS011;10326;53.660;10.200;2022-07-29T10:34:57;2.40;;;1.60;;
20336;SDS011;10326;53.660;10.200;2022-07-29T10:38:00;1.73;;;1.60;;
20336;SDS011;10326;53.660;10.200;2022-07-29T10:40:54;2.97;;;1.58;;
20336;SDS011;10326;53.660;10.200;2022-07-29T10:43:53;2.55;;;1.60;;
20336;SDS011;10326;53.660;10.200;2022-07-29T10:46:25;1.50;;;1.40;;
20336;SDS011;10326;53.660;10.200;2022-07-29T10:49:06;2.08;;;1.58;;
20336;SDS011;10326;53.660;10.200;2022-07-29T10:51:52;3.28;;;1.45;;
20336;SDS011;10326;53.660;10.200;2022-07-29T10:57:24;4.88;;;1.60;;
20336;SDS011;10326;53.660;10.200;2022-07-29T11:03:00;2.05;;;1.38;;
20336;SDS011;10326;53.660;10.200;2022-07-29T11:05:27;4.18;;;1.70;;
20336;SDS011;10326;53.660;10.200;2022-07-29T11:08:16;3.08;;;1.50;;
20336;SDS011;10326;53.660;10.200;2022-07-29T11:10:51;2.55;;;1.58;;
20336;SDS011;10326;53.660;10.200;2022-07-29T11:13:58;4.22;;;1.20;;
20336;SDS011;10326;53.660;10.200;2022-07-29T11:16:25;3.55;;;1.40;;
20336;SDS011;10326;53.660;10.200;2022-07-29T11:19:35;1.65;;;1.40;;
20336;SDS011;10326;53.660;10.200;2022-07-29T11:22:07;3.00;;;1.50;;
20336;SDS011;10326;53.660;10.200;2022-07-29T11:24:36;3.97;;;1.48;;
20336;SDS011;10326;53.660;10.200;2022-07-29T11:27:05;2.53;;;1.38;;
20336;SDS011;10326;53.660;10.200;2022-07-29T11:29:34;4.22;;;1.50;;
20336;SDS011;10326;53.660;10.200;2022-07-29T11:32:09;2.08;;;1.30;;
20336;SDS011;10326;53.660;10.200;2022-07-29T11:34:40;2.60;;;1.42;;
20336;SDS011;10326;53.660;10.200;2022-07-29T11:37:14;2.45;;;1.42;;
20336;SDS011;10326;53.660;10.200;2022-07-29T11:42:41;1.80;;;1.60;;
20336;SDS011;10326;53.660;10.200;2022-07-29T11:45:11;3.22;;;1.40;;
20336;SDS011;10326;53.660;10.200;2022-07-29T11:47:46;3.28;;;1.55;;
20336;SDS011;10326;53.660;10.200;2022-07-29T11:50:26;2.40;;;1.50;;
20336;SDS011;10326;53.660;10.200;2022-07-29T11:52:59;2.80;;;1.50;;
20336;SDS011;10326;53.660;10.200;2022-07-29T11:55:28;3.45;;;1.45;;
20336;SDS011;10326;53.660;10.200;2022-07-29T11:57:57;3.17;;;1.42;;
20336;SDS011;10326;53.660;10.200;2022-07-29T12:00:27;3.47;;;1.40;;
20336;SDS011;10326;53.660;10.200;2022-07-29T12:02:57;3.97;;;2.13;;
20336;SDS011;10326;53.660;10.200;2022-07-29T12:05:33;2.00;;;1.30;;
20336;SDS011;10326;53.660;10.200;2022-07-29T12:08:07;1.42;;;1.30;;
20336;SDS011;10326;53.660;10.200;2022-07-29T12:10:38;2.30;;;1.65;;
20336;SDS011;10326;53.660;10.200;2022-07-29T12:13:06;2.67;;;1.40;;
20336;SDS011;10326;53.660;10.200;2022-07-29T12:15:34;2.25;;;1.35;;
20336;SDS011;10326;53.660;10.200;2022-07-29T12:18:11;2.30;;;1.52;;
20336;SDS011;10326;53.660;10.200;2022-07-29T12:20:42;3.28;;;1.60;;
20336;SDS011;10326;53.660;10.200;2022-07-29T12:23:09;1.92;;;1.50;;
20336;SDS011;10326;53.660;10.200;2022-07-29T12:25:38;4.13;;;1.50;;
20336;SDS011;10326;53.660;10.200;2022-07-29T12:28:07;5.70;;;1.60;;
20336;SDS011;10326;53.660;10.200;2022-07-29T12:30:38;2.05;;;1.20;;
20336;SDS011;10326;53.660;10.200;2022-07-29T12:33:11;3.03;;;1.50;;
20336;SDS011;10326;53.660;10.200;2022-07-29T12:35:46;3.13;;;1.48;;
20336;SDS011;10326;53.660;10.200;2022-07-29T12:38:16;1.95;;;1.50;;
20336;SDS011;10326;53.660;10.200;2022-07-29T12:40:44;3.08;;;1.95;;
20336;SDS011;10326;53.660;10.200;2022-07-29T12:43:13;3.35;;;1.77;;
20336;SDS011;10326;53.660;10.200;2022-07-29T12:45:43;3.47;;;1.90;;
20336;SDS011;10326;53.660;10.200;2022-07-29T12:48:11;4.47;;;2.35;;
20336;SDS011;10326;53.660;10.200;2022-07-29T12:50:57;3.60;;;1.80;;
20336;SDS011;10326;53.660;10.200;2022-07-29T12:53:26;1.98;;;1.70;;
20336;SDS011;10326;53.660;10.200;2022-07-29T12:55:55;2.58;;;1.77;;
20336;SDS011;10326;53.660;10.200;2022-07-29T12:58:27;3.55;;;2.00;;
20336;SDS011;10326;53.660;10.200;2022-07-29T13:01:01;3.80;;;1.60;;
20336;SDS011;10326;53.660;10.200;2022-07-29T13:03:41;3.15;;;1.65;;
20336;SDS011;10326;53.660;10.200;2022-07-29T13:09:04;3.55;;;1.73;;
20336;SDS011;10326;53.660;10.200;2022-07-29T13:11:37;3.45;;;1.90;;
20336;SDS011;10326;53.660;10.200;2022-07-29T13:14:07;2.72;;;1.65;;
20336;SDS011;10326;53.660;10.200;2022-07-29T13:16:36;3.75;;;1.90;;
20336;SDS011;10326;53.660;10.200;2022-07-29T13:19:32;2.92;;;1.70;;
20336;SDS011;10326;53.660;10.200;2022-07-29T13:22:03;3.35;;;1.63;;
20336;SDS011;10326;53.660;10.200;2022-07-29T13:24:31;3.53;;;1.70;;
20336;SDS011;10326;53.660;10.200;2022-07-29T13:26:58;2.33;;;2.08;;
20336;SDS011;10326;53.660;10.200;2022-07-29T13:29:25;3.20;;;1.73;;
20336;SDS011;10326;53.660;10.200;2022-07-29T13:31:52;3.08;;;1.85;;
20336;SDS011;10326;53.660;10.200;2022-07-29T13:34:20;5.60;;;1.80;;
20336;SDS011;10326;53.660;10.200;2022-07-29T13:36:49;3.88;;;1.90;;
20336;SDS011;10326;53.660;10.200;2022-07-29T13:39:18;5.57;;;1.85;;
20336;SDS011;10326;53.660;10.200;2022-07-29T13:41:45;2.70;;;2.00;;
20336;SDS011;10326;53.660;10.200;2022-07-29T13:44:12;3.95;;;1.70;;
20336;SDS011;10326;53.660;10.200;2022-07-29T13:46:39;2.25;;;2.03;;
20336;SDS011;10326;53.660;10.200;2022-07-29T13:49:06;2.88;;;1.88;;
20336;SDS011;10326;53.660;10.200;2022-07-29T13:51:33;4.35;;;1.90;;
20336;SDS011;10326;53.660;10.200;2022-07-29T13:54:01;4.07;;;1.80;;
20336;SDS011;10326;53.660;10.200;2022-07-29T13:56:29;5.32;;;1.65;;
20336;SDS011;10326;53.660;10.200;2022-07-29T13:58:57;3.22;;;1.73;;
20336;SDS011;10326;53.660;10.200;2022-07-29T14:01:24;2.15;;;1.50;;
20336;SDS011;10326;53.660;10.200;2022-07-29T14:03:52;3.85;;;1.80;;
20336;SDS011;10326;53.660;10.200;2022-07-29T14:06:19;4.72;;;1.55;;
20336;SDS011;10326;53.660;10.200;2022-07-29T14:08:47;5.30;;;1.88;;
20336;SDS011;10326;53.660;10.200;2022-07-29T14:11:14;3.45;;;1.98;;
20336;SDS011;10326;53.660;10.200;2022-07-29T14:13:42;4.18;;;1.80;;
20336;SDS011;10326;53.660;10.200;2022-07-29T14:16:10;3.35;;;1.70;;
20336;SDS011;10326;53.660;10.200;2022-07-29T14:18:37;2.92;;;1.58;;
20336;SDS011;10326;53.660;10.200;2022-07-29T14:21:04;4.10;;;2.00;;
20336;SDS011;10326;53.660;10.200;2022-07-29T14:23:31;2.20;;;1.50;;
20336;SDS011;10326;53.660;10.200;2022-07-29T14:25:59;2.33;;;1.58;;
20336;SDS011;10326;53.660;10.200;2022-07-29T14:28:26;4.78;;;1.98;;
20336;SDS011;10326;53.660;10.200;2022-07-29T14:30:55;4.32;;;1.70;;
20336;SDS011;10326;53.660;10.200;2022-07-29T14:33:22;2.03;;;1.65;;
20336;SDS011;10326;53.660;10.200;2022-07-29T14:35:49;2.72;;;1.55;;
20336;SDS011;10326;53.660;10.200;2022-07-29T14:38:16;2.85;;;1.63;;
20336;SDS011;10326;53.660;10.200;2022-07-29T14:40:44;3.25;;;1.63;;
20336;SDS011;10326;53.660;10.200;2022-07-29T14:43:11;1.90;;;1.63;;
20336;SDS011;10326;53.660;10.200;2022-07-29T14:45:39;3.65;;;1.63;;
20336;SDS011;10326;53.660;10.200;2022-07-29T14:48:07;3.50;;;1.60;;
20336;SDS011;10326;53.660;10.200;2022-07-29T14:50:36;4.10;;;1.75;;
20336;SDS011;10326;53.660;10.200;2022-07-29T14:53:05;4.57;;;1.60;;
20336;SDS011;10326;53.660;10.200;2022-07-29T14:55:32;3.17;;;1.60;;
20336;SDS011;10326;53.660;10.200;2022-07-29T14:57:59;3.38;;;1.48;;
20336;SDS011;10326;53.660;10.200;2022-07-29T15:00:26;2.50;;;1.55;;
20336;SDS011;10326;53.660;10.200;2022-07-29T15:02:57;4.05;;;1.77;;
20336;SDS011;10326;53.660;10.200;2022-07-29T15:05:25;2.50;;;1.45;;